Latest Coastal Weather Observations for East Sale

IDV60701

Issued at 11:31 pm EDT Sunday 29 March 2015 (issued every 10 minutes, with the page automatically refreshed every 10 minutes)

About coastal observations | Map of coastal stations | Coastal observations for VIC | Marine services | Other Formats
Station Details ID: 085072 Name: EAST SALE AIRPORT Lat: -38.12 Lon: 147.13 Height: 4.6 m
Data from the previous 72 hours. | See also: Recent months at East Sale
Date/Time
EDT
Temp

°C
Wind Pressure Rain
since 9am
mm
Weather Cloud Vis
km
Sea
Height
m
Swell
Dir
 
Speed
knots
Gust
knots
hPa Trend Height
m
Period
s
Dir
29/11:30pm 11.1 NE 4 5 1024.5 - 0.0 - - 10 - - - -
29/11:00pm 11.3 ENE 5 6 1024.7 - 0.0 - - 10 - - - -
29/10:30pm 12.2 E 5 5 1024.7 - 0.0 - - 10 - - - -
29/10:00pm 13.2 ESE 4 5 1024.6 - 0.0 - - 10 - - - -
29/09:30pm 12.6 ESE 5 6 1024.3 - 0.0 - - 10 - - - -
29/09:00pm 13.8 ESE 7 9 1023.9 R 0.0 - - 10 - - - -
29/08:30pm 13.5 E 5 6 1023.5 - 0.0 - - 10 - - - -
29/08:00pm 14.0 E 6 7 1022.9 - 0.0 - - 10 - - - -
29/07:30pm 15.7 E 8 9 1022.2 - 0.0 - - 10 - - - -
29/07:00pm 17.0 SE 9 11 1021.7 - 0.0 - - 10 - - - -
29/06:30pm 18.1 SE 10 13 1021.4 - 0.0 - - 10 - - - -
29/06:00pm 18.9 SE 11 13 1021.0 R 0.0 - - 10 - - - -
29/05:30pm 19.5 SE 12 17 1020.9 - 0.0 - - 10 - - - -
29/05:00pm 20.2 ESE 13 17 1020.6 - 0.0 - - 10 - - - -
29/04:30pm 20.7 SE 12 16 1020.5 - 0.0 - - 10 - - - -
29/04:00pm 22.1 S 9 16 1020.4 - 0.0 - - 10 - - - -
29/03:30pm 23.4 SW 10 14 1020.3 - 0.0 - - 10 - - - -
29/03:00pm 23.2 SSW 12 18 1020.4 F 0.0 - - 10 - - - -
29/02:30pm 23.0 SW 12 19 1020.7 - 0.0 - - 10 - - - -
29/02:00pm 22.6 WSW 11 16 1020.9 - 0.0 - - 10 - - - -
29/01:30pm 22.3 WSW 9 13 1021.4 - 0.0 - - 10 - - - -
29/01:00pm 21.1 W 10 15 1021.8 - 0.0 - - 10 - - - -
29/12:30pm 20.3 W 7 11 1022.3 - 0.0 - - 10 - - - -
29/12:00pm 19.0 W 6 8 1022.6 F 0.0 - - 10 - - - -
29/11:30am 17.4 WNW 6 8 1022.9 - 0.0 - - 10 - - - -
29/11:00am 16.3 WNW 6 8 1023.3 - 0.0 - - 10 - - - -
29/10:30am 15.3 NW 6 8 1023.5 - 0.0 - - 10 - - - -
29/10:00am 13.9 NW 7 9 1023.6 - 0.0 - - 10 - - - -
29/09:30am 12.2 NW 8 9 1023.5 - 0.0 - - 10 - - - -
29/09:21am 11.3 NW 7 8 1023.5 - 0.0 - Partly cloudy 9 - - - -
29/09:16am 11.2 NW 7 8 1023.6 - 0.0 - Partly cloudy 10 - - - -
29/09:00am 10.3 WNW 7 8 1023.6 R 0.2 - Mostly cloudy 2 - - - -
29/08:30am 8.5 NW 6 7 1023.5 - 0.2 - Cloudy 0.6 - - - -
29/08:00am 6.9 NW 4 5 1023.1 - 0.2 - Cloudy 1 - - - -
29/07:30am 6.7 WNW 5 5 1022.5 - 0.2 - Cloudy 0.9 - - - -
29/07:00am 6.7 WNW 7 8 1022.2 - 0.0 - Cloudy 1 - - - -
29/06:30am 6.7 NW 5 6 1021.8 - 0.0 - Cloudy 0.3 - - - -
29/06:00am 7.0 NW 5 6 1021.5 S 0.0 - Cloudy 0.2 - - - -
29/05:30am 7.5 WNW 5 6 1021.4 - 0.0 - Cloudy 0.1 - - - -
29/05:00am 7.4 NW 5 5 1021.2 - 0.0 - Cloudy 0.4 - - - -
29/04:30am 7.4 NW 6 7 1021.1 - 0.0 - Partly cloudy 0.2 - - - -
29/04:00am 7.8 WNW 5 6 1021.1 - 0.0 - Partly cloudy 1 - - - -
29/03:51am 8.1 WNW 4 5 1021.2 - 0.0 - Partly cloudy 3 - - - -
29/03:30am 8.5 NW 5 5 1021.4 - 0.0 - Partly cloudy 2 - - - -
29/03:00am 9.2 NW 4 4 1021.5 S 0.0 - - 5 - - - -
29/02:59am 9.2 NW 4 4 1021.6 - 0.0 - - 6 - - - -
29/02:49am 9.1 NW 4 5 1021.7 - 0.0 - - 8 - - - -
29/02:38am 9.1 NW 5 6 1021.9 - 0.0 - - 6 - - - -
29/02:30am 9.2 WNW 5 5 1022.0 - 0.0 - - 8 - - - -
29/02:00am 9.2 W 2 4 1022.2 - 0.0 - - 9 - - - -
29/01:52am 9.3 CALM 0 0 1022.2 - 0.0 - - 10 - - - -
29/01:33am 10.1 CALM 0 0 1022.2 - 0.0 - - 5 - - - -
29/01:30am 10.1 CALM 0 0 1022.2 - 0.0 - - 9 - - - -
29/01:00am 11.3 CALM 0 0 1022.3 - 0.0 - Partly cloudy 10 - - - -
29/12:30am 12.2 SW 4 5 1022.6 - 0.0 - Cloudy 10 - - - -
29/12:00am 12.4 CALM 0 0 1022.5 F 0.0 - Mostly cloudy 25 - - - -
 
Date/Time
EDT
Temp

°C
Wind Pressure Rain
since 9am
mm
Weather Cloud Vis
km
Sea
Height
m
Swell
Dir
 
Speed
knots
Gust
knots
hPa Trend Height
m
Period
s
Dir
28/11:30pm 12.2 WNW 5 5 1022.8 - 0.0 - Cloudy 10 - - - -
28/11:00pm 12.5 NNW 5 6 1022.9 - 0.0 - Cloudy 10 - - - -
28/10:30pm 12.6 N 5 6 1023.1 - 0.0 - Partly cloudy 10 - - - -
28/10:00pm 12.8 NNW 6 6 1023.3 - 0.0 - Cloudy 10 - - - -
28/09:30pm 12.7 NNW 4 5 1023.3 - 0.0 - Partly cloudy 10 - - - -
28/09:00pm 13.2 NNW 4 5 1023.2 F 0.0 - Mostly cloudy 10 - - - -
28/08:30pm 13.4 NNE 3 4 1023.1 - 0.0 - Cloudy 10 - - - -
28/08:00pm 12.7 E 3 5 1022.8 - 0.0 - Partly cloudy 10 - - - -
28/07:30pm 14.4 WSW 5 6 1022.6 - 0.0 - Partly cloudy 10 - - - -
28/07:00pm 16.0 SW 5 7 1022.3 - 0.0 - - 10 - - - -
28/06:30pm 17.0 WSW 7 8 1022.3 - 0.0 - - 10 - - - -
28/06:00pm 17.6 WSW 7 9 1022.3 F 0.0 - - 10 - - - -
28/05:30pm 18.4 WSW 8 11 1022.3 - 0.0 - Partly cloudy 10 - - - -
28/05:00pm 19.0 SW 8 11 1022.3 - 0.0 - Partly cloudy 10 - - - -
28/04:30pm 18.7 SW 8 14 1022.6 - 0.0 - Partly cloudy 10 - - - -
28/04:00pm 18.7 SW 7 11 1022.8 - 0.0 - - 10 - - - -
28/03:30pm 18.3 SW 11 14 1023.0 - 0.0 - - 10 - - - -
28/03:00pm 18.2 WSW 12 16 1023.3 F 0.0 - Mostly cloudy 10 - - - -
28/02:30pm 17.7 WSW 10 14 1023.4 - 0.0 - Cloudy 10 - - - -
28/02:00pm 17.3 W 10 14 1023.9 - 0.0 - Cloudy 10 - - - -
28/01:30pm 18.1 W 11 15 1024.1 - 0.0 - Partly cloudy 10 - - - -
28/01:00pm 17.6 W 9 14 1024.4 - 0.0 - Partly cloudy 10 - - - -
28/12:30pm 16.6 WSW 9 13 1024.8 - 0.0 - Partly cloudy 10 - - - -
28/12:00pm 16.2 WSW 10 15 1025.2 S 0.0 - Cloudy 10 - - - -
28/11:30am 15.4 W 12 16 1025.5 - 0.0 - Cloudy 10 - - - -
28/11:00am 15.5 W 11 15 1025.7 - 0.0 - Cloudy 10 - - - -
28/10:30am 14.8 W 11 15 1025.7 - 0.0 - Cloudy 10 - - - -
28/10:00am 13.6 W 11 14 1025.7 - 0.0 - Cloudy 10 - - - -
28/09:30am 13.2 W 9 12 1025.6 - 0.0 - Cloudy 10 - - - -
28/09:00am 12.6 W 9 11 1025.3 R 3.0 - Cloudy 10 - - - -
28/08:30am 11.2 W 8 11 1025.1 - 3.0 - Cloudy 10 - - - -
28/08:00am 9.9 W 6 7 1024.8 - 3.0 - Cloudy 10 - - - -
28/07:30am 8.0 WNW 7 7 1024.6 - 3.0 - Partly cloudy 10 - - - -
28/07:00am 7.4 WNW 7 7 1024.4 - 3.0 - - 10 - - - -
28/06:30am 7.5 NNW 7 8 1024.3 - 3.0 - - 10 - - - -
28/06:00am 7.1 WNW 6 7 1024.0 R 3.0 - - 10 - - - -
28/05:30am 7.6 NW 7 8 1023.9 - 3.0 - - 10 - - - -
28/05:00am 8.0 NW 7 8 1023.8 - 3.0 - - 10 - - - -
28/04:30am 8.1 NW 7 8 1023.7 - 3.0 - - 10 - - - -
28/04:00am 8.9 NW 7 8 1023.6 - 3.0 - - 10 - - - -
28/03:30am 9.1 NW 7 8 1023.5 - 3.0 - - 10 - - - -
28/03:00am 10.1 NNW 6 7 1023.8 R 3.0 - - 10 - - - -
28/02:30am 10.6 WNW 8 10 1023.7 - 3.0 - - 10 - - - -
28/02:00am 10.6 W 9 11 1023.7 - 3.0 - - 10 - - - -
28/01:30am 10.4 W 9 11 1023.7 - 3.0 - - 10 - - - -
28/01:00am 10.5 W 10 15 1023.7 - 3.0 - - 10 - - - -
28/12:30am 11.2 WSW 8 12 1023.7 - 3.0 - - 10 - - - -
28/12:00am 11.4 W 9 11 1023.7 R 3.0 - - 10 - - - -
 
Date/Time
EDT
Temp

°C
Wind Pressure Rain
since 9am
mm
Weather Cloud Vis
km
Sea
Height
m
Swell
Dir
 
Speed
knots
Gust
knots
hPa Trend Height
m
Period
s
Dir
27/11:30pm 11.4 W 9 12 1023.7 - 3.0 - - 10 - - - -
27/11:00pm 12.1 W 11 13 1023.7 - 3.0 - - 10 - - - -
27/10:30pm 11.9 W 12 15 1023.5 - 3.0 - - 10 - - - -
27/10:00pm 12.5 W 13 17 1023.3 - 3.0 - - 10 - - - -
27/09:30pm 12.6 W 15 17 1023.3 - 3.0 - - 10 - - - -
27/09:00pm 12.7 W 16 21 1022.9 R 3.0 - Mostly clear 10 - - - -
27/08:30pm 13.0 W 15 22 1022.5 - 3.0 - Partly cloudy 10 - - - -
27/08:00pm 13.2 WNW 17 21 1022.0 - 3.0 - Partly cloudy 10 - - - -
27/07:30pm 13.6 W 17 22 1021.8 - 3.0 - Partly cloudy 10 - - - -
27/07:00pm 13.9 W 17 25 1021.6 - 3.0 - Partly cloudy 10 - - - -
27/06:30pm 14.0 W 17 23 1021.2 - 3.0 - Partly cloudy 10 - - - -
27/06:02pm 13.7 W 19 29 1021.0 - 2.8 - Partly cloudy 9 - - - -
27/06:00pm 13.7 W 20 29 1020.9 R 2.8 - Cloudy 10 - - - -
27/05:59pm 13.7 W 19 29 1020.9 - 2.8 - Partly cloudy 10 - - - -
27/05:49pm 14.1 W 22 29 1020.8 - 2.8 - Partly cloudy 10 - - - -
27/05:30pm 13.6 W 19 27 1020.6 - 2.8 - Partly cloudy 6 - - - -
27/05:29pm 13.6 W 20 27 1020.6 - 2.8 - Partly cloudy 6 - - - -
27/05:00pm 14.9 W 25 37 1020.1 - 2.8 - Partly cloudy 10 - - - -
27/04:31pm 14.7 W 24 34 1020.0 - 2.8 - Partly cloudy 10 - - - -
27/04:30pm 14.6 W 24 31 1019.9 - 2.8 - Partly cloudy 10 - - - -
27/04:01pm 15.2 W 27 38 1019.5 - 2.8 - Partly cloudy 10 - - - -
27/04:00pm 15.2 W 27 35 1019.5 - 2.8 - Partly cloudy 10 - - - -
27/03:30pm 16.1 W 23 33 1019.6 - 2.8 - Partly cloudy 10 - - - -
27/03:00pm 14.9 W 22 33 1019.7 R 2.8 - Cloudy 9 - - - -
27/02:41pm 15.2 W 24 34 1019.7 - 2.8 - Mostly cloudy 10 - - - -
27/02:30pm 15.0 W 27 35 1019.5 - 2.8 - Mostly cloudy 10 - - - -
27/02:00pm 15.0 W 27 39 1019.5 - 2.8 - Partly cloudy 10 - - - -
27/01:49pm 14.9 W 25 35 1019.6 - 2.8 - Partly cloudy 10 - - - -
27/01:34pm 14.7 W 25 34 1019.7 - 2.8 - Partly cloudy 10 - - - -
27/01:32pm 14.4 W 24 34 1019.7 - 2.8 - Partly cloudy 10 - - - -
27/01:30pm 14.2 W 24 31 1019.8 - 2.8 - Partly cloudy 10 - - - -
27/01:21pm 13.9 W 25 35 1019.8 - 2.8 - Partly cloudy 6 - - - -
27/01:20pm 13.8 W 25 35 1019.9 - 2.8 - Partly cloudy 7 - - - -
27/01:16pm 13.9 W 26 35 1019.7 - 2.8 - Partly cloudy 10 - - - -
27/01:02pm 14.5 W 24 34 1019.7 - 2.8 - Partly cloudy 6 - - - -
27/01:01pm 14.5 W 25 34 1019.7 - 2.8 - Partly cloudy 6 - - - -
27/01:00pm 14.5 W 26 35 1019.7 - 2.8 - Partly cloudy 7 - - - -
27/12:44pm 14.7 W 28 38 1019.6 - 2.8 - Mostly cloudy 10 - - - -
27/12:30pm 15.2 W 27 37 1019.5 - 2.6 - Partly cloudy 10 - - - -
27/12:25pm 14.8 W 27 37 1019.4 - 2.6 - Partly cloudy 10 - - - -
27/12:00pm 14.5 W 22 29 1019.5 R 2.6 Recent precip. Cloudy 6 - - - -
27/11:53am 13.8 W 24 34 1019.6 - 2.6 Showers Partly cloudy 10 - - - -
27/11:32am 14.1 W 22 34 1019.5 - 2.6 - Partly cloudy 10 - - - -
27/11:30am 14.0 W 22 34 1019.4 - 2.6 - Partly cloudy 10 - - - -
27/11:00am 13.2 W 21 29 1019.6 - 1.6 - Partly cloudy 5 - - - -
27/10:48am 13.0 W 23 30 1019.5 - 1.0 Showers Partly cloudy 4 - - - -
27/10:38am 13.6 W 24 31 1019.2 - 0.6 Showers Partly cloudy 6 - - - -
27/10:30am 13.5 W 24 37 1019.1 - 0.6 - Partly cloudy 10 - - - -
27/10:24am 13.3 W 28 37 1019.1 - 0.6 Showers Partly cloudy 10 - - - -
27/10:14am 13.8 W 22 32 1018.7 - 0.0 - Partly cloudy 10 - - - -
27/10:00am 13.3 W 21 30 1018.8 - 0.0 - Partly cloudy 10 - - - -
27/09:30am 13.5 W 25 35 1018.5 - 0.0 Showers Partly cloudy 8 - - - -
27/09:05am 14.1 W 25 35 1017.8 - 0.0 - Mostly clear 10 - - - -
27/09:00am 13.8 WNW 25 34 1017.7 R 1.4 - Mostly cloudy 10 - - - -
27/08:58am 13.7 WNW 24 34 1017.7 - 1.4 - Mostly clear 10 - - - -
27/08:30am 12.9 WNW 25 33 1017.3 - 1.4 - Mostly clear 10 - - - -
27/08:24am 13.0 WNW 22 32 1017.2 - 1.4 - Mostly clear 10 - - - -
27/08:00am 12.6 WNW 21 27 1017.3 - 1.4 - Mostly clear 8 - - - -
27/07:30am 12.4 WNW 24 30 1017.2 - 1.4 Showers Mostly clear 8 - - - -
27/07:00am 12.3 WNW 20 25 1016.8 - 1.2 - Partly cloudy 10 - - - -
27/06:30am 12.5 WNW 21 28 1016.5 - 1.2 - - 10 - - - -
27/06:00am 12.3 WNW 19 26 1016.3 R 1.2 Recent precip. Mostly clear 10 - - - -
27/05:30am 12.0 WNW 16 20 1016.4 - 1.2 - Partly cloudy 10 - - - -
27/05:21am 11.9 WNW 16 20 1016.3 - 1.2 - Partly cloudy 10 - - - -
27/05:05am 12.0 WNW 22 32 1016.2 - 1.2 - Partly cloudy 4 - - - -
27/05:02am 12.2 WNW 23 32 1016.3 - 1.2 - Partly cloudy 5 - - - -
27/05:00am 12.4 WNW 22 30 1016.3 - 1.0 - Partly cloudy 8 - - - -
27/04:30am 12.5 WNW 21 28 1016.1 - 0.8 - Partly cloudy 10 - - - -
27/04:29am 12.5 W 21 28 1016.1 - 0.8 - Partly cloudy 10 - - - -
27/04:10am 12.4 WNW 26 36 1016.1 - 0.8 - Partly cloudy 5 - - - -
27/04:04am 13.1 WNW 24 36 1015.8 - 0.4 - Partly cloudy 10 - - - -
27/04:00am 13.7 WNW 21 29 1016.0 - 0.4 - Partly cloudy 10 - - - -
27/03:56am 13.8 WNW 19 29 1015.9 - 0.4 - Partly cloudy 10 - - - -
27/03:30am 13.4 WNW 18 25 1015.8 - 0.2 - Partly cloudy 10 - - - -
27/03:24am 13.6 WNW 15 25 1015.9 - 0.2 - Partly cloudy 10 - - - -
27/03:00am 12.6 WNW 10 13 1015.9 R 0.2 Rain Cloudy 10 - - - -
27/02:30am 12.9 W 13 17 1016.1 - 0.0 - Partly cloudy 10 - - - -
27/02:00am 13.0 W 10 16 1016.2 - 0.0 - Partly cloudy 10 - - - -
27/01:30am 14.3 WNW 11 17 1016.2 - 0.0 - Cloudy 10 - - - -
27/01:00am 14.1 WNW 10 12 1016.2 - 0.0 - Partly cloudy 10 - - - -
27/12:30am 14.6 WNW 14 19 1016.3 - 0.0 - Cloudy 10 - - - -
27/12:00am 14.6 WNW 15 19 1015.8 F 0.0 - Cloudy 10 - - - -

Other Formats:

Comma delimited format used in spreadsheet applications
http://www.bom.gov.au/fwo/IDV60701/IDV60701.94907.axf

JavaScript Object Notation format (JSON) in row-major order
http://www.bom.gov.au/fwo/IDV60701/IDV60701.94907.json